createdAt,value
2023-10-06T00:00:41.739Z,100.00
2023-10-06T00:01:44.066Z,100.00
2023-10-06T00:02:46.646Z,100.00
2023-10-06T00:03:49.581Z,100.00
2023-10-06T00:04:53.008Z,100.00
2023-10-06T00:05:56.645Z,100.00
2023-10-06T00:07:07.216Z,100.00
2023-10-06T00:08:12.116Z,100.00
2023-10-06T00:09:29.568Z,100.00
2023-10-06T00:10:33.389Z,100.00
2023-10-06T00:11:35.027Z,100.00
2023-10-06T00:12:36.562Z,100.00
2023-10-06T00:13:39.255Z,100.00
2023-10-06T00:14:41.948Z,100.00
2023-10-06T00:15:45.123Z,100.00
2023-10-06T00:16:47.554Z,100.00
2023-10-06T00:17:50.378Z,100.00
2023-10-06T00:18:54.105Z,100.00
2023-10-06T00:19:58.037Z,100.00
2023-10-06T00:21:08.495Z,100.00
2023-10-06T00:22:18.942Z,100.00
2023-10-06T00:23:23.930Z,100.00
2023-10-06T00:24:27.130Z,100.00
2023-10-06T00:25:29.069Z,100.00
2023-10-06T00:26:30.559Z,100.00
2023-10-06T00:27:32.504Z,100.00
2023-10-06T00:28:34.060Z,100.00
2023-10-06T00:29:38.042Z,100.00
2023-10-06T00:30:40.125Z,100.00
2023-10-06T00:31:42.262Z,100.00
2023-10-06T00:32:43.935Z,100.00
2023-10-06T00:33:46.301Z,100.00
2023-10-06T00:34:50.091Z,100.00
2023-10-06T00:35:51.678Z,100.00
2023-10-06T00:36:53.856Z,100.00
2023-10-06T00:37:58.854Z,100.00
2023-10-06T00:39:00.356Z,100.00
2023-10-06T00:40:01.927Z,100.00
2023-10-06T00:41:07.786Z,100.00
2023-10-06T00:42:09.724Z,100.00
2023-10-06T00:43:16.918Z,100.00
2023-10-06T00:44:22.676Z,100.00
2023-10-06T00:45:27.266Z,100.00
2023-10-06T00:46:28.780Z,100.00
2023-10-06T00:47:39.718Z,100.00
2023-10-06T00:48:43.166Z,100.00
2023-10-06T00:49:45.755Z,100.00
2023-10-06T00:50:47.459Z,100.00
2023-10-06T00:51:48.942Z,100.00
2023-10-06T00:52:51.772Z,100.00
2023-10-06T00:53:57.373Z,100.00
2023-10-06T00:54:59.636Z,100.00
2023-10-06T00:56:04.282Z,100.00
2023-10-06T00:57:11.933Z,100.00
2023-10-06T00:58:13.763Z,100.00
2023-10-06T00:59:15.279Z,100.00
2023-10-06T01:00:22.064Z,100.00
2023-10-06T01:01:24.824Z,100.00
2023-10-06T01:02:27.116Z,100.00
2023-10-06T01:03:28.751Z,100.00
2023-10-06T01:04:36.013Z,100.00
2023-10-06T01:05:39.586Z,100.00
2023-10-06T01:06:43.619Z,100.00
2023-10-06T01:07:48.234Z,100.00
2023-10-06T01:08:56.900Z,100.00
2023-10-06T01:10:00.464Z,100.00
2023-10-06T01:11:18.354Z,100.00
2023-10-06T01:12:21.105Z,100.00
2023-10-06T01:13:23.818Z,100.00
2023-10-06T01:14:27.998Z,100.00
2023-10-06T01:15:31.035Z,100.00
2023-10-06T01:16:36.362Z,100.00
2023-10-06T01:17:38.285Z,100.00
2023-10-06T01:18:42.295Z,100.00
2023-10-06T01:19:50.792Z,100.00
2023-10-06T01:20:52.520Z,100.00
2023-10-06T01:21:55.595Z,100.00
2023-10-06T01:22:57.667Z,100.00
2023-10-06T01:23:59.538Z,100.00
2023-10-06T01:25:04.233Z,100.00
2023-10-06T01:26:05.688Z,100.00
2023-10-06T01:27:07.494Z,100.00
2023-10-06T01:28:13.732Z,100.00
2023-10-06T01:29:15.509Z,100.00
2023-10-06T01:30:20.440Z,100.00
2023-10-06T01:31:21.985Z,100.00
2023-10-06T01:32:23.495Z,100.00
2023-10-06T01:33:26.137Z,100.00
2023-10-06T01:34:28.393Z,100.00
2023-10-06T01:35:34.777Z,100.00
2023-10-06T01:36:39.552Z,100.00
2023-10-06T01:37:49.365Z,100.00
2023-10-06T01:38:51.058Z,100.00
2023-10-06T01:39:52.773Z,100.00
2023-10-06T01:40:55.189Z,100.00
2023-10-06T01:41:57.078Z,100.00
2023-10-06T01:42:59.110Z,100.00
2023-10-06T01:44:01.712Z,100.00
2023-10-06T01:45:14.852Z,100.00
2023-10-06T01:46:16.380Z,100.00
2023-10-06T01:47:19.555Z,100.00
2023-10-06T01:48:21.125Z,100.00
2023-10-06T01:49:23.267Z,100.00
2023-10-06T01:50:28.086Z,100.00
2023-10-06T01:51:29.555Z,100.00
2023-10-06T01:52:31.648Z,100.00
2023-10-06T01:53:40.122Z,100.00
2023-10-06T01:54:45.981Z,100.00
2023-10-06T01:55:54.048Z,100.00
2023-10-06T01:56:55.792Z,100.00
2023-10-06T01:57:58.143Z,100.00
2023-10-06T01:59:00.090Z,100.00
2023-10-06T02:00:02.517Z,100.00
2023-10-06T02:01:19.713Z,100.00
2023-10-06T02:02:25.625Z,100.00
2023-10-06T02:03:27.660Z,100.00
2023-10-06T02:04:41.197Z,100.00
2023-10-06T02:05:43.131Z,100.00
2023-10-06T02:06:46.196Z,100.00
2023-10-06T02:07:48.209Z,100.00
2023-10-06T02:08:52.539Z,100.00
2023-10-06T02:09:54.141Z,100.00
2023-10-06T02:10:56.681Z,100.00
2023-10-06T02:11:58.449Z,100.00
2023-10-06T02:13:00.035Z,100.00
2023-10-06T02:14:06.054Z,100.00
2023-10-06T02:15:11.676Z,100.00
2023-10-06T02:16:13.179Z,100.00
2023-10-06T02:17:14.684Z,100.00
2023-10-06T02:18:16.470Z,100.00
2023-10-06T02:19:18.077Z,100.00
2023-10-06T02:20:25.654Z,100.00
2023-10-06T02:21:30.058Z,100.00
2023-10-06T02:22:31.638Z,100.00
2023-10-06T02:23:38.327Z,100.00
2023-10-06T02:24:40.531Z,100.00
2023-10-06T02:25:42.313Z,100.00
2023-10-06T02:26:46.009Z,100.00
2023-10-06T02:27:51.650Z,100.00
2023-10-06T02:28:55.590Z,100.00
2023-10-06T02:29:57.798Z,100.00
2023-10-06T02:31:04.629Z,100.00
2023-10-06T02:32:10.118Z,100.00
2023-10-06T02:33:12.367Z,100.00
2023-10-06T02:34:27.931Z,100.00
2023-10-06T02:35:29.599Z,100.00
2023-10-06T02:36:32.254Z,100.00
2023-10-06T02:37:33.971Z,100.00
2023-10-06T02:38:47.825Z,100.00
2023-10-06T02:39:49.327Z,100.00
2023-10-06T02:40:50.809Z,100.00
2023-10-06T02:41:58.354Z,100.00
2023-10-06T02:43:01.365Z,100.00
2023-10-06T02:44:08.492Z,100.00
2023-10-06T02:45:10.068Z,100.00
2023-10-06T02:46:11.863Z,100.00
2023-10-06T02:47:15.154Z,100.00
2023-10-06T02:48:23.694Z,100.00
2023-10-06T02:49:36.494Z,100.00
2023-10-06T02:50:38.159Z,100.00
2023-10-06T02:51:48.748Z,100.00
2023-10-06T02:52:54.655Z,100.00
2023-10-06T02:54:18.725Z,100.00
2023-10-06T02:55:21.060Z,100.00
2023-10-06T02:56:29.708Z,100.00
2023-10-06T02:57:39.243Z,100.00
2023-10-06T02:58:42.228Z,100.00
2023-10-06T02:59:44.239Z,100.00
2023-10-06T03:00:51.348Z,100.00
2023-10-06T03:01:56.994Z,100.00
2023-10-06T03:03:13.347Z,100.00
2023-10-06T03:04:18.371Z,100.00
2023-10-06T03:05:20.205Z,100.00
2023-10-06T03:06:21.707Z,100.00
2023-10-06T03:07:23.699Z,100.00
2023-10-06T03:08:29.128Z,100.00
2023-10-06T03:09:39.034Z,100.00
2023-10-06T03:10:44.816Z,100.00
2023-10-06T03:11:50.568Z,100.00
2023-10-06T03:12:53.390Z,100.00
2023-10-06T03:13:59.631Z,100.00
2023-10-06T03:15:02.608Z,100.00
2023-10-06T03:16:11.506Z,100.00
2023-10-06T03:17:15.029Z,100.00
2023-10-06T03:18:17.988Z,100.00
2023-10-06T03:19:25.850Z,100.00
2023-10-06T03:20:34.678Z,100.00
2023-10-06T03:21:40.889Z,100.00
2023-10-06T03:22:44.170Z,100.00
2023-10-06T03:23:46.809Z,100.00
2023-10-06T03:24:59.210Z,100.00
2023-10-06T03:26:05.323Z,100.00
2023-10-06T03:27:13.597Z,100.00
2023-10-06T03:28:18.898Z,100.00
2023-10-06T03:29:29.408Z,100.00
2023-10-06T03:30:35.748Z,100.00
2023-10-06T03:31:46.726Z,100.00
2023-10-06T03:32:59.267Z,100.00
2023-10-06T03:34:01.499Z,100.00
2023-10-06T03:35:23.379Z,100.00
2023-10-06T03:36:38.552Z,100.00
2023-10-06T03:37:53.331Z,100.00
2023-10-06T03:39:06.906Z,100.00
2023-10-06T03:40:14.365Z,100.00
2023-10-06T03:41:26.014Z,100.00
2023-10-06T03:42:28.901Z,100.00
2023-10-06T03:43:48.883Z,100.00
2023-10-06T03:45:05.848Z,100.00
2023-10-06T03:46:11.014Z,100.00
2023-10-06T03:47:12.518Z,100.00
2023-10-06T03:48:14.143Z,100.00
2023-10-06T03:49:19.374Z,100.00
2023-10-06T03:50:21.309Z,100.00
2023-10-06T03:51:22.838Z,100.00
2023-10-06T03:52:24.310Z,100.00
2023-10-06T03:53:25.736Z,100.00
2023-10-06T03:54:27.207Z,100.00
2023-10-06T03:55:29.822Z,100.00
2023-10-06T03:56:32.114Z,100.00
2023-10-06T03:57:33.547Z,100.00
2023-10-06T03:58:34.998Z,100.00
2023-10-06T03:59:36.800Z,100.00
2023-10-06T04:00:48.646Z,100.00
2023-10-06T04:01:52.563Z,100.00
2023-10-06T04:02:54.268Z,100.00
2023-10-06T04:03:59.546Z,100.00
2023-10-06T04:05:06.807Z,100.00
2023-10-06T04:06:13.763Z,100.00
2023-10-06T04:07:15.242Z,100.00
2023-10-06T04:08:24.139Z,100.00
2023-10-06T04:09:29.384Z,100.00
2023-10-06T04:10:34.513Z,100.00
2023-10-06T04:11:36.044Z,100.00
2023-10-06T04:12:37.465Z,100.00
2023-10-06T04:13:40.224Z,100.00
2023-10-06T04:14:42.848Z,100.00
2023-10-06T04:15:49.946Z,100.00
2023-10-06T04:16:51.867Z,100.00
2023-10-06T04:17:53.475Z,100.00
2023-10-06T04:18:55.013Z,100.00
2023-10-06T04:19:56.606Z,100.00
2023-10-06T04:20:58.157Z,100.00
2023-10-06T04:21:59.599Z,100.00
2023-10-06T04:23:03.307Z,100.00
2023-10-06T04:24:05.277Z,100.00
2023-10-06T04:25:11.201Z,100.00
2023-10-06T04:26:16.185Z,100.00
2023-10-06T04:27:17.935Z,100.00
2023-10-06T04:28:20.713Z,100.00
2023-10-06T04:29:27.003Z,100.00
2023-10-06T04:30:31.314Z,100.00
2023-10-06T04:31:33.945Z,100.00
2023-10-06T04:32:35.505Z,100.00
2023-10-06T04:33:38.963Z,100.00
2023-10-06T04:34:41.911Z,100.00
2023-10-06T04:35:56.798Z,100.00
2023-10-06T04:36:58.544Z,100.00
2023-10-06T04:38:07.206Z,100.00
2023-10-06T04:39:12.462Z,100.00
2023-10-06T04:40:22.725Z,100.00
2023-10-06T04:41:24.243Z,100.00
2023-10-06T04:42:25.708Z,100.00
2023-10-06T04:44:29.621Z,100.00
2023-10-06T04:45:32.953Z,100.00
2023-10-06T04:46:36.226Z,100.00
2023-10-06T04:47:41.488Z,100.00
2023-10-06T04:48:43.111Z,100.00
2023-10-06T04:49:44.592Z,100.00
2023-10-06T04:50:53.010Z,100.00
2023-10-06T04:51:54.554Z,100.00
2023-10-06T04:52:56.473Z,100.00
2023-10-06T04:53:58.046Z,100.00
2023-10-06T04:54:59.798Z,100.00
2023-10-06T04:56:03.946Z,100.00
2023-10-06T04:57:05.397Z,100.00
2023-10-06T04:58:09.742Z,100.00
2023-10-06T04:59:12.660Z,100.00
2023-10-06T05:00:21.516Z,100.00
2023-10-06T05:01:23.002Z,100.00
2023-10-06T05:02:25.357Z,100.00
2023-10-06T05:03:27.978Z,100.00
2023-10-06T05:04:29.557Z,100.00
2023-10-06T05:05:35.066Z,100.00
2023-10-06T05:06:36.941Z,100.00
2023-10-06T05:07:39.385Z,100.00
2023-10-06T05:08:42.102Z,100.00
2023-10-06T05:09:43.603Z,100.00
2023-10-06T05:10:45.140Z,100.00
2023-10-06T05:11:47.203Z,100.00
2023-10-06T05:12:49.682Z,100.00
2023-10-06T05:13:53.885Z,100.00
2023-10-06T05:14:58.276Z,100.00
2023-10-06T05:16:01.217Z,100.00
2023-10-06T05:17:02.811Z,100.00
2023-10-06T05:18:06.589Z,100.00
2023-10-06T05:19:09.116Z,100.00
2023-10-06T05:20:20.515Z,100.00
2023-10-06T05:21:22.073Z,100.00
2023-10-06T05:22:23.585Z,100.00
2023-10-06T05:23:25.057Z,100.00
2023-10-06T05:24:26.937Z,100.00
2023-10-06T05:25:30.525Z,100.00
2023-10-06T05:26:32.018Z,100.00
2023-10-06T05:27:35.193Z,100.00
2023-10-06T05:28:38.323Z,100.00
2023-10-06T05:29:39.819Z,100.00
2023-10-06T05:30:43.080Z,100.00
2023-10-06T05:31:45.021Z,100.00
2023-10-06T05:32:46.678Z,100.00
2023-10-06T05:33:48.418Z,100.00
2023-10-06T05:34:50.661Z,100.00
2023-10-06T05:35:52.990Z,100.00
2023-10-06T05:36:55.749Z,100.00
2023-10-06T05:37:58.662Z,100.00
2023-10-06T05:39:04.065Z,100.00
2023-10-06T05:40:05.951Z,100.00
2023-10-06T05:41:12.536Z,100.00
2023-10-06T05:42:14.740Z,100.00
2023-10-06T05:43:19.651Z,100.00
2023-10-06T05:44:22.547Z,100.00
2023-10-06T05:45:24.828Z,100.00
2023-10-06T05:46:26.366Z,100.00
2023-10-06T05:47:29.755Z,100.00
2023-10-06T05:48:31.819Z,100.00
2023-10-06T05:49:33.923Z,100.00
2023-10-06T05:50:36.985Z,100.00
2023-10-06T05:51:39.915Z,100.00
2023-10-06T05:52:41.459Z,100.00
2023-10-06T05:53:44.988Z,100.00
2023-10-06T05:54:47.287Z,100.00
2023-10-06T05:55:50.977Z,100.00
2023-10-06T05:56:54.399Z,100.00
2023-10-06T05:57:57.178Z,100.00
2023-10-06T05:58:58.801Z,100.00
2023-10-06T06:00:02.170Z,100.00
2023-10-06T06:01:14.110Z,100.00
2023-10-06T06:02:17.037Z,100.00
2023-10-06T06:03:22.018Z,100.00
2023-10-06T06:04:28.421Z,100.00
2023-10-06T06:05:31.167Z,100.00
2023-10-06T06:06:37.174Z,100.00
2023-10-06T06:07:38.688Z,100.00
2023-10-06T06:08:41.562Z,100.00
2023-10-06T06:09:43.377Z,100.00
2023-10-06T06:10:46.386Z,100.00
2023-10-06T06:11:47.906Z,100.00
2023-10-06T06:12:49.360Z,100.00
2023-10-06T06:14:02.320Z,100.00
2023-10-06T06:15:09.641Z,100.00
2023-10-06T06:16:11.714Z,100.00
2023-10-06T06:17:13.354Z,100.00
2023-10-06T06:18:15.210Z,100.00
2023-10-06T06:19:16.733Z,100.00
2023-10-06T06:20:22.664Z,100.00
2023-10-06T06:21:26.107Z,100.00
2023-10-06T06:22:30.780Z,100.00
2023-10-06T06:23:34.715Z,100.00
2023-10-06T06:24:39.090Z,100.00
2023-10-06T06:25:41.868Z,100.00
2023-10-06T06:26:44.531Z,100.00
2023-10-06T06:27:46.420Z,100.00
2023-10-06T06:28:47.864Z,100.00
2023-10-06T06:29:50.929Z,100.00
2023-10-06T06:30:52.725Z,100.00
2023-10-06T06:31:54.331Z,100.00
2023-10-06T06:32:55.990Z,100.00
2023-10-06T06:33:58.585Z,100.00
2023-10-06T06:35:00.364Z,100.00
2023-10-06T06:36:02.138Z,100.00
2023-10-06T06:37:03.895Z,100.00
2023-10-06T06:38:08.443Z,100.00
2023-10-06T06:39:11.765Z,100.00
2023-10-06T06:40:14.362Z,100.00
2023-10-06T06:41:15.914Z,100.00
2023-10-06T06:42:18.157Z,100.00
2023-10-06T06:43:21.188Z,100.00
2023-10-06T06:44:22.718Z,100.00
2023-10-06T06:45:29.776Z,100.00
2023-10-06T06:46:31.625Z,100.00
2023-10-06T06:47:33.341Z,100.00
2023-10-06T06:48:36.363Z,100.00
2023-10-06T06:49:38.142Z,100.00
2023-10-06T06:50:43.974Z,100.00
2023-10-06T06:51:45.619Z,100.00
2023-10-06T06:52:49.737Z,100.00
2023-10-06T06:53:51.176Z,100.00
2023-10-06T06:54:52.658Z,100.00
2023-10-06T06:55:54.715Z,100.00
2023-10-06T06:56:56.254Z,100.00
2023-10-06T06:58:01.542Z,100.00
2023-10-06T06:59:03.112Z,100.00
2023-10-06T07:00:10.947Z,100.00
2023-10-06T07:01:15.828Z,100.00
2023-10-06T07:02:17.811Z,100.00
2023-10-06T07:03:19.310Z,100.00
2023-10-06T07:04:20.724Z,100.00
2023-10-06T07:05:23.897Z,100.00
2023-10-06T07:06:27.389Z,100.00
2023-10-06T07:07:28.899Z,100.00
2023-10-06T07:08:30.387Z,100.00
2023-10-06T07:09:31.824Z,100.00
2023-10-06T07:10:34.232Z,100.00
2023-10-06T07:11:35.699Z,100.00
2023-10-06T07:12:37.482Z,100.00
2023-10-06T07:13:39.266Z,100.00
2023-10-06T07:14:40.706Z,100.00
2023-10-06T07:15:42.880Z,100.00
2023-10-06T07:16:45.005Z,100.00
2023-10-06T07:17:50.637Z,100.00
2023-10-06T07:18:52.149Z,100.00
2023-10-06T07:19:53.628Z,100.00
2023-10-06T07:20:55.081Z,100.00
2023-10-06T07:21:56.571Z,100.00
2023-10-06T07:23:02.826Z,100.00
2023-10-06T07:24:04.717Z,100.00
2023-10-06T07:25:06.394Z,100.00
2023-10-06T07:26:11.968Z,100.00
2023-10-06T07:27:14.160Z,100.00
2023-10-06T07:28:15.675Z,100.00
2023-10-06T07:29:17.132Z,100.00
2023-10-06T07:30:23.174Z,100.00
2023-10-06T07:31:26.457Z,100.00
2023-10-06T07:32:28.237Z,100.00
2023-10-06T07:33:29.742Z,100.00
2023-10-06T07:34:31.244Z,100.00
2023-10-06T07:35:44.403Z,100.00
2023-10-06T07:36:46.089Z,100.00
2023-10-06T07:37:51.079Z,100.00
2023-10-06T07:38:53.525Z,100.00
2023-10-06T07:39:54.984Z,100.00
2023-10-06T07:41:00.115Z,100.00
2023-10-06T07:42:02.089Z,100.00
2023-10-06T07:43:06.262Z,100.00
2023-10-06T07:44:07.990Z,100.00
2023-10-06T07:45:10.223Z,100.00
2023-10-06T07:46:12.386Z,100.00
2023-10-06T07:47:14.300Z,100.00
2023-10-06T07:48:15.944Z,100.00
2023-10-06T07:49:17.399Z,100.00
2023-10-06T07:50:19.039Z,100.00
2023-10-06T07:51:20.931Z,100.00
2023-10-06T07:52:22.964Z,100.00
2023-10-06T07:53:25.065Z,100.00
2023-10-06T07:54:27.682Z,100.00
2023-10-06T07:55:29.163Z,100.00
2023-10-06T07:56:31.467Z,100.00
2023-10-06T07:57:34.196Z,100.00
2023-10-06T07:58:39.061Z,100.00
2023-10-06T07:59:40.812Z,100.00
2023-10-06T08:00:43.263Z,100.00
2023-10-06T08:01:45.178Z,100.00
2023-10-06T08:02:47.047Z,100.00
2023-10-06T08:03:48.744Z,100.00
2023-10-06T08:04:52.304Z,100.00
2023-10-06T08:05:53.724Z,100.00
2023-10-06T08:06:55.235Z,100.00
2023-10-06T08:07:59.245Z,100.00
2023-10-06T08:09:01.208Z,100.00
2023-10-06T08:10:04.551Z,100.00
2023-10-06T08:11:07.380Z,100.00
2023-10-06T08:12:09.394Z,100.00
2023-10-06T08:13:11.754Z,100.00
2023-10-06T08:14:14.571Z,100.00
2023-10-06T08:15:19.853Z,100.00
2023-10-06T08:16:21.387Z,100.00
2023-10-06T08:17:22.898Z,100.00
2023-10-06T08:18:25.479Z,100.00
2023-10-06T08:19:27.257Z,100.00
2023-10-06T08:20:30.638Z,100.00
2023-10-06T08:21:32.534Z,100.00
2023-10-06T08:22:35.194Z,100.00
2023-10-06T08:23:37.107Z,100.00
2023-10-06T08:24:39.570Z,100.00
2023-10-06T08:26:47.299Z,100.00
2023-10-06T08:27:51.398Z,100.00
2023-10-06T08:28:52.996Z,100.00
2023-10-06T08:29:54.507Z,100.00
2023-10-06T08:30:56.120Z,100.00
2023-10-06T08:31:59.106Z,100.00
2023-10-06T08:33:00.724Z,100.00
2023-10-06T08:34:06.774Z,100.00
2023-10-06T08:35:14.280Z,100.00
2023-10-06T08:36:15.962Z,100.00
2023-10-06T08:37:17.736Z,100.00
2023-10-06T08:38:19.522Z,100.00
2023-10-06T08:39:21.832Z,100.00
2023-10-06T08:40:28.084Z,100.00
2023-10-06T08:41:44.802Z,100.00
2023-10-06T08:42:50.838Z,100.00
2023-10-06T08:43:52.975Z,100.00
2023-10-06T08:44:54.872Z,100.00
2023-10-06T08:46:00.918Z,100.00
2023-10-06T08:47:16.254Z,100.00
2023-10-06T08:48:26.678Z,100.00
2023-10-06T08:49:28.879Z,100.00
2023-10-06T08:50:32.592Z,100.00
2023-10-06T08:51:34.394Z,100.00
2023-10-06T08:52:38.083Z,100.00
2023-10-06T08:53:41.638Z,100.00
2023-10-06T08:54:43.646Z,100.00
2023-10-06T08:55:45.499Z,100.00
2023-10-06T08:56:48.051Z,100.00
2023-10-06T08:57:51.882Z,100.00
2023-10-06T08:58:54.301Z,100.00
2023-10-06T08:59:57.763Z,100.00
2023-10-06T09:01:00.768Z,100.00
2023-10-06T09:02:02.543Z,100.00
2023-10-06T09:03:12.168Z,100.00
2023-10-06T09:04:14.082Z,100.00
2023-10-06T09:05:15.839Z,100.00
2023-10-06T09:06:17.390Z,100.00
2023-10-06T09:07:21.233Z,100.00
2023-10-06T09:08:22.870Z,100.00
2023-10-06T09:09:27.624Z,100.00
2023-10-06T09:10:32.411Z,100.00
2023-10-06T09:11:41.052Z,100.00
2023-10-06T09:12:43.935Z,100.00
2023-10-06T09:13:46.737Z,100.00
2023-10-06T09:14:55.453Z,100.00
2023-10-06T09:16:09.466Z,100.00
2023-10-06T09:17:12.398Z,100.00
2023-10-06T09:18:22.951Z,100.00
2023-10-06T09:19:24.577Z,100.00
2023-10-06T09:20:38.369Z,100.00
2023-10-06T09:22:03.512Z,100.00
2023-10-06T09:23:05.339Z,100.00
2023-10-06T09:24:20.832Z,100.00
2023-10-06T09:25:22.744Z,100.00
2023-10-06T09:26:30.745Z,100.00
2023-10-06T09:27:33.231Z,100.00
2023-10-06T09:28:34.972Z,100.00
2023-10-06T09:29:39.340Z,100.00
2023-10-06T09:30:51.315Z,100.00
2023-10-06T09:31:52.995Z,100.00
2023-10-06T09:33:06.033Z,100.00
2023-10-06T09:34:10.731Z,100.00
2023-10-06T09:35:23.676Z,100.00
2023-10-06T09:36:42.622Z,100.00
2023-10-06T09:37:46.368Z,100.00
2023-10-06T09:38:48.955Z,98.04
2023-10-06T09:40:11.398Z,97.71
2023-10-06T09:41:13.143Z,96.40
2023-10-06T09:42:16.596Z,98.31
2023-10-06T09:43:21.091Z,96.76
2023-10-06T09:44:24.579Z,98.07
2023-10-06T09:45:30.152Z,96.63
2023-10-06T09:46:36.854Z,96.81
2023-10-06T09:47:46.540Z,97.55
2023-10-06T09:48:51.804Z,95.36
2023-10-06T09:49:54.100Z,93.91
2023-10-06T09:50:55.903Z,93.47
2023-10-06T09:52:02.333Z,95.16
2023-10-06T09:53:04.668Z,94.80
2023-10-06T09:54:10.788Z,92.30
2023-10-06T09:55:12.877Z,92.01
2023-10-06T09:56:17.323Z,94.12
2023-10-06T09:57:19.052Z,94.35
2023-10-06T09:58:23.357Z,94.19
2023-10-06T09:59:28.158Z,90.85
2023-10-06T10:00:31.220Z,93.65
2023-10-06T10:01:35.667Z,90.81
2023-10-06T10:02:41.590Z,91.34
2023-10-06T10:03:44.297Z,95.23
2023-10-06T10:04:47.606Z,91.76
2023-10-06T10:05:50.045Z,91.57
2023-10-06T10:06:52.891Z,89.13
2023-10-06T10:07:55.322Z,87.02
2023-10-06T10:08:56.974Z,85.14
2023-10-06T10:09:58.925Z,86.86
2023-10-06T10:11:08.990Z,84.54
2023-10-06T10:12:28.263Z,86.40
2023-10-06T10:13:51.490Z,86.77
2023-10-06T10:15:39.198Z,84.45
2023-10-06T10:17:08.166Z,89.22
2023-10-06T10:18:34.941Z,85.09
2023-10-06T10:19:37.675Z,83.58
2023-10-06T10:20:39.610Z,84.43
2023-10-06T10:21:42.975Z,82.99
2023-10-06T10:22:44.848Z,84.40
2023-10-06T10:23:46.378Z,84.73
2023-10-06T10:25:52.932Z,83.79
2023-10-06T10:26:55.596Z,83.70
2023-10-06T10:28:28.387Z,83.75
2023-10-06T10:29:31.199Z,84.05
2023-10-06T10:30:50.741Z,82.51
2023-10-06T10:32:01.384Z,83.78
2023-10-06T10:33:08.383Z,84.57
2023-10-06T10:34:24.950Z,84.00
2023-10-06T10:35:27.119Z,82.25
2023-10-06T10:36:28.737Z,83.46
2023-10-06T10:37:32.010Z,83.14
2023-10-06T10:38:34.256Z,84.26
2023-10-06T10:39:51.889Z,85.28
2023-10-06T10:40:53.360Z,84.62
2023-10-06T10:41:59.350Z,83.28
2023-10-06T10:43:06.750Z,80.55
2023-10-06T10:44:25.208Z,80.84
2023-10-06T10:45:35.901Z,82.18
2023-10-06T10:46:53.994Z,81.80
2023-10-06T10:47:58.416Z,80.69
2023-10-06T10:49:01.436Z,80.03
2023-10-06T10:50:04.486Z,77.88
2023-10-06T10:51:13.605Z,80.45
2023-10-06T10:52:15.517Z,77.85
2023-10-06T10:53:24.692Z,80.53
2023-10-06T10:54:32.863Z,78.36
2023-10-06T10:55:35.975Z,82.32
2023-10-06T10:56:38.078Z,81.33
2023-10-06T10:57:45.616Z,79.37
2023-10-06T10:58:49.146Z,79.43
2023-10-06T11:00:08.871Z,82.03
2023-10-06T11:01:34.389Z,81.50
2023-10-06T11:02:45.773Z,79.41
2023-10-06T11:04:18.921Z,78.55
2023-10-06T11:05:22.012Z,76.34
2023-10-06T11:06:24.186Z,75.59
2023-10-06T11:07:25.680Z,74.02
2023-10-06T11:08:39.665Z,74.96
2023-10-06T11:09:42.106Z,72.94
2023-10-06T11:10:43.637Z,65.59
2023-10-06T11:11:45.151Z,67.18
2023-10-06T11:12:46.867Z,67.40
2023-10-06T11:14:03.376Z,67.63
2023-10-06T11:15:17.594Z,70.38
2023-10-06T11:16:19.334Z,68.72
2023-10-06T11:17:25.779Z,75.93
2023-10-06T11:18:36.077Z,77.10
2023-10-06T11:19:39.233Z,78.31
2023-10-06T11:20:41.198Z,75.41
2023-10-06T11:21:48.253Z,70.06
2023-10-06T11:22:55.245Z,70.83
2023-10-06T11:23:57.583Z,70.12
2023-10-06T11:25:04.162Z,70.15
2023-10-06T11:26:07.375Z,68.07
2023-10-06T11:27:24.766Z,68.62
2023-10-06T11:28:41.939Z,69.05
2023-10-06T11:29:46.765Z,72.21
2023-10-06T11:30:49.033Z,70.05
2023-10-06T11:31:51.881Z,69.61
2023-10-06T11:32:57.992Z,67.62
2023-10-06T11:33:59.618Z,70.87
2023-10-06T11:35:01.205Z,65.75
2023-10-06T11:36:02.814Z,62.47
2023-10-06T11:37:06.289Z,65.11
2023-10-06T11:38:13.155Z,64.13
2023-10-06T11:39:15.611Z,63.31
2023-10-06T11:40:17.486Z,63.56
2023-10-06T11:41:23.506Z,64.33
2023-10-06T11:42:25.151Z,59.09
2023-10-06T11:43:26.716Z,60.15
2023-10-06T11:44:40.274Z,62.15
2023-10-06T11:45:43.583Z,64.68
2023-10-06T11:46:52.931Z,60.66
2023-10-06T11:47:55.696Z,67.29
2023-10-06T11:49:10.968Z,61.01
2023-10-06T11:50:25.837Z,60.56
2023-10-06T11:51:29.163Z,62.03
2023-10-06T11:52:33.585Z,61.73
2023-10-06T11:53:40.052Z,64.69
2023-10-06T11:54:42.111Z,63.36
2023-10-06T11:55:43.790Z,60.98
2023-10-06T11:56:53.116Z,60.81
2023-10-06T11:57:55.221Z,56.44
2023-10-06T11:58:56.710Z,57.34
2023-10-06T11:59:58.478Z,57.14
2023-10-06T12:01:00.038Z,52.64
2023-10-06T12:02:10.654Z,56.58
2023-10-06T12:03:13.085Z,51.88
2023-10-06T12:04:33.885Z,50.70
2023-10-06T12:05:37.145Z,51.02
2023-10-06T12:06:39.975Z,51.34
2023-10-06T12:07:42.409Z,50.35
2023-10-06T12:08:47.142Z,51.25
2023-10-06T12:09:49.813Z,50.20
2023-10-06T12:10:52.766Z,50.80
2023-10-06T12:11:58.665Z,49.13
2023-10-06T12:13:00.781Z,47.98
2023-10-06T12:14:04.295Z,48.32
2023-10-06T12:15:07.428Z,50.64
2023-10-06T12:16:13.757Z,50.66
2023-10-06T12:17:16.369Z,50.30
2023-10-06T12:18:18.029Z,51.27
2023-10-06T12:19:19.479Z,49.27
2023-10-06T12:20:21.117Z,49.55
2023-10-06T12:21:22.782Z,48.75
2023-10-06T12:22:40.731Z,50.89
2023-10-06T12:23:43.628Z,49.53
2023-10-06T12:24:47.213Z,47.56
2023-10-06T12:25:48.689Z,46.58
2023-10-06T12:26:50.236Z,45.67
2023-10-06T12:27:52.312Z,46.83
2023-10-06T12:28:55.699Z,47.71
2023-10-06T12:29:57.480Z,47.98
2023-10-06T12:30:59.157Z,45.47
2023-10-06T12:32:03.018Z,47.51
2023-10-06T12:33:06.651Z,49.81
2023-10-06T12:34:09.498Z,47.50
2023-10-06T12:35:11.305Z,48.18
2023-10-06T12:36:13.824Z,47.28
2023-10-06T12:37:16.915Z,49.02
2023-10-06T12:38:18.417Z,48.45
2023-10-06T12:39:34.358Z,48.97
2023-10-06T12:40:35.851Z,47.95
2023-10-06T12:41:40.142Z,49.32
2023-10-06T12:42:44.968Z,50.63
2023-10-06T12:43:48.599Z,49.34
2023-10-06T12:44:50.420Z,51.15
2023-10-06T12:45:51.841Z,49.61
2023-10-06T12:46:53.349Z,50.97
2023-10-06T12:47:54.853Z,48.09
2023-10-06T12:48:56.440Z,49.51
2023-10-06T12:50:06.169Z,50.62
2023-10-06T12:51:12.591Z,49.61
2023-10-06T12:52:14.366Z,49.23
2023-10-06T12:53:17.558Z,46.77
2023-10-06T12:54:20.436Z,47.35
2023-10-06T12:55:28.428Z,47.41
2023-10-06T12:56:30.019Z,47.06
2023-10-06T12:57:35.391Z,46.86
2023-10-06T12:58:36.906Z,47.87
2023-10-06T12:59:38.346Z,47.21
2023-10-06T13:00:39.969Z,49.71
2023-10-06T13:01:41.590Z,48.47
2023-10-06T13:02:43.531Z,47.14
2023-10-06T13:03:45.353Z,47.35
2023-10-06T13:04:46.957Z,48.03
2023-10-06T13:05:48.991Z,48.69
2023-10-06T13:06:50.934Z,48.29
2023-10-06T13:07:52.836Z,47.85
2023-10-06T13:08:54.340Z,49.13
2023-10-06T13:09:55.845Z,45.86
2023-10-06T13:10:57.446Z,44.94
2023-10-06T13:12:00.077Z,45.65
2023-10-06T13:13:07.470Z,45.73
2023-10-06T13:14:09.317Z,46.65
2023-10-06T13:15:18.701Z,45.89
2023-10-06T13:16:20.355Z,48.06
2023-10-06T13:17:25.453Z,44.64
2023-10-06T13:18:27.726Z,46.92
2023-10-06T13:19:29.220Z,45.94
2023-10-06T13:20:30.835Z,45.85
2023-10-06T13:21:32.415Z,47.72
2023-10-06T13:22:38.507Z,47.11
2023-10-06T13:23:40.226Z,49.22
2023-10-06T13:24:41.968Z,48.93
2023-10-06T13:25:46.770Z,47.41
2023-10-06T13:26:48.302Z,46.56
2023-10-06T13:27:49.827Z,46.92
2023-10-06T13:28:54.523Z,47.32
2023-10-06T13:29:56.480Z,48.15
2023-10-06T13:30:58.279Z,45.96
2023-10-06T13:31:59.787Z,47.53
2023-10-06T13:33:01.777Z,48.31
2023-10-06T13:34:03.907Z,47.97
2023-10-06T13:35:12.808Z,45.91
2023-10-06T13:36:15.857Z,46.88